sensor_id;sensor_type;location;lat;lon;timestamp;P1;durP1;ratioP1;P2;durP2;ratioP2
56860;SDS011;42744;51.094;3.490;2023-07-30T00:02:20;13.57;;;3.23;;
56860;SDS011;42744;51.094;3.490;2023-07-30T00:04:46;11.37;;;3.07;;
56860;SDS011;42744;51.094;3.490;2023-07-30T00:07:13;13.77;;;2.90;;
56860;SDS011;42744;51.094;3.490;2023-07-30T00:09:39;10.57;;;3.10;;
56860;SDS011;42744;51.094;3.490;2023-07-30T00:12:06;13.70;;;2.83;;
56860;SDS011;42744;51.094;3.490;2023-07-30T00:14:33;12.70;;;2.80;;
56860;SDS011;42744;51.094;3.490;2023-07-30T00:17:00;9.50;;;2.53;;
56860;SDS011;42744;51.094;3.490;2023-07-30T00:19:26;13.60;;;3.33;;
56860;SDS011;42744;51.094;3.490;2023-07-30T00:21:52;12.03;;;3.70;;
56860;SDS011;42744;51.094;3.490;2023-07-30T00:24:18;10.57;;;3.70;;
56860;SDS011;42744;51.094;3.490;2023-07-30T00:26:44;13.67;;;3.20;;
56860;SDS011;42744;51.094;3.490;2023-07-30T00:29:10;12.33;;;3.40;;
56860;SDS011;42744;51.094;3.490;2023-07-30T00:31:36;13.67;;;3.07;;
56860;SDS011;42744;51.094;3.490;2023-07-30T00:34:02;13.97;;;3.80;;
56860;SDS011;42744;51.094;3.490;2023-07-30T00:36:28;11.43;;;3.63;;
56860;SDS011;42744;51.094;3.490;2023-07-30T00:38:54;13.50;;;3.20;;
56860;SDS011;42744;51.094;3.490;2023-07-30T00:41:20;13.17;;;3.20;;
56860;SDS011;42744;51.094;3.490;2023-07-30T00:43:46;12.47;;;3.33;;
56860;SDS011;42744;51.094;3.490;2023-07-30T00:46:14;11.03;;;2.63;;
56860;SDS011;42744;51.094;3.490;2023-07-30T00:48:40;17.97;;;3.33;;
56860;SDS011;42744;51.094;3.490;2023-07-30T00:51:07;13.63;;;3.50;;
56860;SDS011;42744;51.094;3.490;2023-07-30T00:53:34;16.33;;;3.73;;
56860;SDS011;42744;51.094;3.490;2023-07-30T00:56:02;13.23;;;2.83;;
56860;SDS011;42744;51.094;3.490;2023-07-30T00:58:28;19.43;;;3.53;;
56860;SDS011;42744;51.094;3.490;2023-07-30T01:00:57;15.37;;;3.13;;
56860;SDS011;42744;51.094;3.490;2023-07-30T01:03:23;15.17;;;2.77;;
56860;SDS011;42744;51.094;3.490;2023-07-30T01:05:52;12.67;;;3.00;;
56860;SDS011;42744;51.094;3.490;2023-07-30T01:08:18;19.03;;;3.43;;
56860;SDS011;42744;51.094;3.490;2023-07-30T01:10:45;12.43;;;3.17;;
56860;SDS011;42744;51.094;3.490;2023-07-30T01:13:11;18.90;;;3.03;;
56860;SDS011;42744;51.094;3.490;2023-07-30T01:15:39;12.03;;;3.20;;
56860;SDS011;42744;51.094;3.490;2023-07-30T01:18:06;12.77;;;3.23;;
56860;SDS011;42744;51.094;3.490;2023-07-30T01:20:32;12.07;;;3.10;;
56860;SDS011;42744;51.094;3.490;2023-07-30T01:22:58;15.13;;;3.30;;
56860;SDS011;42744;51.094;3.490;2023-07-30T01:25:25;9.60;;;2.70;;
56860;SDS011;42744;51.094;3.490;2023-07-30T01:27:57;17.43;;;3.77;;
56860;SDS011;42744;51.094;3.490;2023-07-30T01:30:32;15.67;;;2.93;;
56860;SDS011;42744;51.094;3.490;2023-07-30T01:33:02;12.23;;;2.60;;
56860;SDS011;42744;51.094;3.490;2023-07-30T01:35:30;15.97;;;3.03;;
56860;SDS011;42744;51.094;3.490;2023-07-30T01:37:57;11.70;;;2.77;;
56860;SDS011;42744;51.094;3.490;2023-07-30T01:40:24;15.80;;;3.40;;
56860;SDS011;42744;51.094;3.490;2023-07-30T01:42:50;15.80;;;3.40;;
56860;SDS011;42744;51.094;3.490;2023-07-30T01:45:16;20.03;;;2.97;;
56860;SDS011;42744;51.094;3.490;2023-07-30T01:47:43;22.60;;;4.10;;
56860;SDS011;42744;51.094;3.490;2023-07-30T01:50:09;14.10;;;3.57;;
56860;SDS011;42744;51.094;3.490;2023-07-30T01:52:35;15.83;;;3.00;;
56860;SDS011;42744;51.094;3.490;2023-07-30T01:55:01;13.33;;;3.00;;
56860;SDS011;42744;51.094;3.490;2023-07-30T01:57:27;16.17;;;3.10;;
56860;SDS011;42744;51.094;3.490;2023-07-30T01:59:53;16.00;;;3.30;;
56860;SDS011;42744;51.094;3.490;2023-07-30T02:02:19;12.27;;;2.77;;
56860;SDS011;42744;51.094;3.490;2023-07-30T02:04:45;8.73;;;2.33;;
56860;SDS011;42744;51.094;3.490;2023-07-30T02:07:11;15.73;;;3.30;;
56860;SDS011;42744;51.094;3.490;2023-07-30T02:09:37;16.33;;;3.70;;
56860;SDS011;42744;51.094;3.490;2023-07-30T02:12:07;13.20;;;2.77;;
56860;SDS011;42744;51.094;3.490;2023-07-30T02:14:39;11.90;;;3.00;;
56860;SDS011;42744;51.094;3.490;2023-07-30T02:17:05;10.00;;;2.80;;
56860;SDS011;42744;51.094;3.490;2023-07-30T02:19:31;17.33;;;3.30;;
56860;SDS011;42744;51.094;3.490;2023-07-30T02:21:58;14.03;;;3.30;;
56860;SDS011;42744;51.094;3.490;2023-07-30T02:24:24;13.63;;;2.70;;
56860;SDS011;42744;51.094;3.490;2023-07-30T02:26:50;13.50;;;2.90;;
56860;SDS011;42744;51.094;3.490;2023-07-30T02:29:16;15.77;;;3.23;;
56860;SDS011;42744;51.094;3.490;2023-07-30T02:31:42;18.87;;;3.63;;
56860;SDS011;42744;51.094;3.490;2023-07-30T02:34:08;12.73;;;3.50;;
56860;SDS011;42744;51.094;3.490;2023-07-30T02:36:34;11.23;;;2.70;;
56860;SDS011;42744;51.094;3.490;2023-07-30T02:39:00;17.40;;;3.67;;
56860;SDS011;42744;51.094;3.490;2023-07-30T02:41:26;19.57;;;4.17;;
56860;SDS011;42744;51.094;3.490;2023-07-30T02:43:52;18.50;;;3.53;;
56860;SDS011;42744;51.094;3.490;2023-07-30T02:46:18;14.60;;;3.20;;
56860;SDS011;42744;51.094;3.490;2023-07-30T02:48:44;13.30;;;2.80;;
56860;SDS011;42744;51.094;3.490;2023-07-30T02:51:10;21.17;;;3.63;;
56860;SDS011;42744;51.094;3.490;2023-07-30T02:53:36;17.17;;;3.23;;
56860;SDS011;42744;51.094;3.490;2023-07-30T02:56:02;16.27;;;3.53;;
56860;SDS011;42744;51.094;3.490;2023-07-30T02:58:28;14.93;;;3.63;;
56860;SDS011;42744;51.094;3.490;2023-07-30T03:00:54;17.33;;;3.50;;
56860;SDS011;42744;51.094;3.490;2023-07-30T03:03:20;13.43;;;3.37;;
56860;SDS011;42744;51.094;3.490;2023-07-30T03:05:45;14.67;;;3.40;;
56860;SDS011;42744;51.094;3.490;2023-07-30T03:08:12;11.70;;;3.37;;
56860;SDS011;42744;51.094;3.490;2023-07-30T03:10:38;12.73;;;3.27;;
56860;SDS011;42744;51.094;3.490;2023-07-30T03:13:04;15.73;;;2.90;;
56860;SDS011;42744;51.094;3.490;2023-07-30T03:15:30;17.73;;;3.33;;
56860;SDS011;42744;51.094;3.490;2023-07-30T03:17:56;23.37;;;3.70;;
56860;SDS011;42744;51.094;3.490;2023-07-30T03:20:22;14.97;;;3.43;;
56860;SDS011;42744;51.094;3.490;2023-07-30T03:22:48;14.77;;;3.47;;
56860;SDS011;42744;51.094;3.490;2023-07-30T03:25:14;16.67;;;3.30;;
56860;SDS011;42744;51.094;3.490;2023-07-30T03:27:40;17.13;;;3.50;;
56860;SDS011;42744;51.094;3.490;2023-07-30T03:30:06;13.23;;;3.27;;
56860;SDS011;42744;51.094;3.490;2023-07-30T03:32:32;13.97;;;3.43;;
56860;SDS011;42744;51.094;3.490;2023-07-30T03:34:58;14.60;;;3.33;;
56860;SDS011;42744;51.094;3.490;2023-07-30T03:37:24;12.07;;;4.10;;
56860;SDS011;42744;51.094;3.490;2023-07-30T03:39:50;12.87;;;3.27;;
56860;SDS011;42744;51.094;3.490;2023-07-30T03:42:16;18.60;;;4.50;;
56860;SDS011;42744;51.094;3.490;2023-07-30T03:44:42;16.43;;;3.43;;
56860;SDS011;42744;51.094;3.490;2023-07-30T03:47:08;17.33;;;3.13;;
56860;SDS011;42744;51.094;3.490;2023-07-30T03:49:34;17.50;;;3.80;;
56860;SDS011;42744;51.094;3.490;2023-07-30T03:52:00;18.13;;;3.27;;
56860;SDS011;42744;51.094;3.490;2023-07-30T03:54:26;12.97;;;3.20;;
56860;SDS011;42744;51.094;3.490;2023-07-30T03:56:52;15.83;;;4.17;;
56860;SDS011;42744;51.094;3.490;2023-07-30T03:59:18;14.03;;;3.40;;
56860;SDS011;42744;51.094;3.490;2023-07-30T04:01:44;19.47;;;4.23;;
56860;SDS011;42744;51.094;3.490;2023-07-30T04:04:10;16.90;;;3.10;;
56860;SDS011;42744;51.094;3.490;2023-07-30T04:06:36;14.40;;;3.80;;
56860;SDS011;42744;51.094;3.490;2023-07-30T04:09:02;18.67;;;3.63;;
56860;SDS011;42744;51.094;3.490;2023-07-30T04:11:29;14.03;;;4.10;;
56860;SDS011;42744;51.094;3.490;2023-07-30T04:13:56;18.20;;;3.67;;
56860;SDS011;42744;51.094;3.490;2023-07-30T04:16:22;17.90;;;4.43;;
56860;SDS011;42744;51.094;3.490;2023-07-30T04:18:48;16.93;;;3.30;;
56860;SDS011;42744;51.094;3.490;2023-07-30T04:21:14;16.03;;;3.63;;
56860;SDS011;42744;51.094;3.490;2023-07-30T04:23:40;18.93;;;3.70;;
56860;SDS011;42744;51.094;3.490;2023-07-30T04:26:06;14.27;;;3.30;;
56860;SDS011;42744;51.094;3.490;2023-07-30T04:28:32;15.23;;;3.47;;
56860;SDS011;42744;51.094;3.490;2023-07-30T04:30:59;15.53;;;3.37;;
56860;SDS011;42744;51.094;3.490;2023-07-30T04:33:25;17.37;;;3.43;;
56860;SDS011;42744;51.094;3.490;2023-07-30T04:35:52;15.77;;;3.63;;
56860;SDS011;42744;51.094;3.490;2023-07-30T04:38:19;16.40;;;3.50;;
56860;SDS011;42744;51.094;3.490;2023-07-30T04:40:45;15.30;;;3.40;;
56860;SDS011;42744;51.094;3.490;2023-07-30T04:43:13;17.50;;;3.33;;
56860;SDS011;42744;51.094;3.490;2023-07-30T04:45:40;13.30;;;3.37;;
56860;SDS011;42744;51.094;3.490;2023-07-30T04:48:06;18.03;;;3.40;;
56860;SDS011;42744;51.094;3.490;2023-07-30T04:50:32;17.10;;;3.50;;
56860;SDS011;42744;51.094;3.490;2023-07-30T04:52:58;15.87;;;3.03;;
56860;SDS011;42744;51.094;3.490;2023-07-30T04:55:24;17.87;;;3.93;;
56860;SDS011;42744;51.094;3.490;2023-07-30T04:57:50;21.37;;;4.30;;
56860;SDS011;42744;51.094;3.490;2023-07-30T05:00:16;18.03;;;3.53;;
56860;SDS011;42744;51.094;3.490;2023-07-30T05:02:43;22.57;;;4.50;;
56860;SDS011;42744;51.094;3.490;2023-07-30T05:05:08;17.23;;;4.27;;
56860;SDS011;42744;51.094;3.490;2023-07-30T05:07:34;17.27;;;4.03;;
56860;SDS011;42744;51.094;3.490;2023-07-30T05:10:00;15.20;;;3.47;;
56860;SDS011;42744;51.094;3.490;2023-07-30T05:12:27;16.07;;;3.50;;
56860;SDS011;42744;51.094;3.490;2023-07-30T05:14:52;17.53;;;3.57;;
56860;SDS011;42744;51.094;3.490;2023-07-30T05:17:18;14.37;;;3.37;;
56860;SDS011;42744;51.094;3.490;2023-07-30T05:19:44;19.80;;;4.67;;
56860;SDS011;42744;51.094;3.490;2023-07-30T05:22:10;19.57;;;4.40;;
56860;SDS011;42744;51.094;3.490;2023-07-30T05:24:39;18.13;;;3.40;;
56860;SDS011;42744;51.094;3.490;2023-07-30T05:27:12;21.30;;;3.97;;
56860;SDS011;42744;51.094;3.490;2023-07-30T05:29:39;16.83;;;3.20;;
56860;SDS011;42744;51.094;3.490;2023-07-30T05:32:05;19.63;;;3.30;;
56860;SDS011;42744;51.094;3.490;2023-07-30T05:34:34;18.10;;;3.27;;
56860;SDS011;42744;51.094;3.490;2023-07-30T05:37:06;10.37;;;2.90;;
56860;SDS011;42744;51.094;3.490;2023-07-30T05:39:35;19.53;;;3.50;;
56860;SDS011;42744;51.094;3.490;2023-07-30T05:42:01;20.50;;;3.60;;
56860;SDS011;42744;51.094;3.490;2023-07-30T05:44:27;19.00;;;3.60;;
56860;SDS011;42744;51.094;3.490;2023-07-30T05:46:53;10.67;;;3.47;;
56860;SDS011;42744;51.094;3.490;2023-07-30T05:49:19;23.77;;;4.70;;
56860;SDS011;42744;51.094;3.490;2023-07-30T05:51:46;20.60;;;3.90;;
56860;SDS011;42744;51.094;3.490;2023-07-30T05:54:12;21.00;;;3.87;;
56860;SDS011;42744;51.094;3.490;2023-07-30T05:56:38;22.37;;;4.00;;
56860;SDS011;42744;51.094;3.490;2023-07-30T05:59:04;19.27;;;3.53;;
56860;SDS011;42744;51.094;3.490;2023-07-30T06:01:30;15.67;;;3.37;;
56860;SDS011;42744;51.094;3.490;2023-07-30T06:03:56;13.37;;;2.97;;
56860;SDS011;42744;51.094;3.490;2023-07-30T06:06:22;17.70;;;3.60;;
56860;SDS011;42744;51.094;3.490;2023-07-30T06:08:53;21.97;;;4.30;;
56860;SDS011;42744;51.094;3.490;2023-07-30T06:11:20;14.30;;;3.60;;
56860;SDS011;42744;51.094;3.490;2023-07-30T06:13:46;14.97;;;3.83;;
56860;SDS011;42744;51.094;3.490;2023-07-30T06:16:12;19.17;;;3.20;;
56860;SDS011;42744;51.094;3.490;2023-07-30T06:18:39;12.93;;;2.87;;
56860;SDS011;42744;51.094;3.490;2023-07-30T06:21:05;16.73;;;3.50;;
56860;SDS011;42744;51.094;3.490;2023-07-30T06:23:30;16.10;;;3.57;;
56860;SDS011;42744;51.094;3.490;2023-07-30T06:25:57;15.13;;;3.80;;
56860;SDS011;42744;51.094;3.490;2023-07-30T06:28:22;19.43;;;4.80;;
56860;SDS011;42744;51.094;3.490;2023-07-30T06:30:49;16.17;;;3.67;;
56860;SDS011;42744;51.094;3.490;2023-07-30T06:33:15;15.67;;;3.73;;
56860;SDS011;42744;51.094;3.490;2023-07-30T06:35:41;18.57;;;4.33;;
56860;SDS011;42744;51.094;3.490;2023-07-30T06:38:08;18.47;;;3.20;;
56860;SDS011;42744;51.094;3.490;2023-07-30T06:40:34;17.87;;;3.57;;
56860;SDS011;42744;51.094;3.490;2023-07-30T06:43:00;22.17;;;3.87;;
56860;SDS011;42744;51.094;3.490;2023-07-30T06:45:26;13.70;;;3.23;;
56860;SDS011;42744;51.094;3.490;2023-07-30T06:47:52;22.43;;;4.30;;
56860;SDS011;42744;51.094;3.490;2023-07-30T06:50:18;18.63;;;3.43;;
56860;SDS011;42744;51.094;3.490;2023-07-30T06:52:44;16.17;;;3.63;;
56860;SDS011;42744;51.094;3.490;2023-07-30T06:55:10;23.73;;;3.50;;
56860;SDS011;42744;51.094;3.490;2023-07-30T06:57:36;13.83;;;3.60;;
56860;SDS011;42744;51.094;3.490;2023-07-30T07:00:02;22.53;;;3.67;;
56860;SDS011;42744;51.094;3.490;2023-07-30T07:02:30;16.20;;;3.13;;
56860;SDS011;42744;51.094;3.490;2023-07-30T07:04:56;16.83;;;3.30;;
56860;SDS011;42744;51.094;3.490;2023-07-30T07:07:22;18.20;;;3.33;;
56860;SDS011;42744;51.094;3.490;2023-07-30T07:09:48;20.77;;;3.87;;
56860;SDS011;42744;51.094;3.490;2023-07-30T07:12:14;11.43;;;3.37;;
56860;SDS011;42744;51.094;3.490;2023-07-30T07:14:40;17.63;;;3.70;;
56860;SDS011;42744;51.094;3.490;2023-07-30T07:17:07;14.03;;;3.40;;
56860;SDS011;42744;51.094;3.490;2023-07-30T07:19:33;17.37;;;3.17;;
56860;SDS011;42744;51.094;3.490;2023-07-30T07:22:03;17.37;;;3.50;;
56860;SDS011;42744;51.094;3.490;2023-07-30T07:24:30;16.60;;;3.67;;
56860;SDS011;42744;51.094;3.490;2023-07-30T07:26:56;14.10;;;3.47;;
56860;SDS011;42744;51.094;3.490;2023-07-30T07:29:22;18.27;;;3.20;;
56860;SDS011;42744;51.094;3.490;2023-07-30T07:31:49;14.23;;;3.10;;
56860;SDS011;42744;51.094;3.490;2023-07-30T07:34:14;16.17;;;2.80;;
56860;SDS011;42744;51.094;3.490;2023-07-30T07:36:40;14.80;;;3.17;;
56860;SDS011;42744;51.094;3.490;2023-07-30T07:39:06;13.90;;;2.63;;
56860;SDS011;42744;51.094;3.490;2023-07-30T07:41:32;12.67;;;2.73;;
56860;SDS011;42744;51.094;3.490;2023-07-30T07:43:58;14.40;;;2.43;;
56860;SDS011;42744;51.094;3.490;2023-07-30T07:46:24;13.10;;;3.73;;
56860;SDS011;42744;51.094;3.490;2023-07-30T07:48:52;15.07;;;3.07;;
56860;SDS011;42744;51.094;3.490;2023-07-30T07:51:18;19.00;;;2.90;;
56860;SDS011;42744;51.094;3.490;2023-07-30T07:53:44;12.43;;;2.17;;
56860;SDS011;42744;51.094;3.490;2023-07-30T07:56:10;13.63;;;3.00;;
56860;SDS011;42744;51.094;3.490;2023-07-30T07:58:36;14.37;;;3.03;;
56860;SDS011;42744;51.094;3.490;2023-07-30T08:01:02;12.03;;;2.67;;
56860;SDS011;42744;51.094;3.490;2023-07-30T08:03:29;12.23;;;2.80;;
56860;SDS011;42744;51.094;3.490;2023-07-30T08:05:55;8.87;;;1.90;;
56860;SDS011;42744;51.094;3.490;2023-07-30T08:08:20;9.47;;;1.67;;
56860;SDS011;42744;51.094;3.490;2023-07-30T08:10:47;6.53;;;1.80;;
56860;SDS011;42744;51.094;3.490;2023-07-30T08:13:13;7.53;;;1.83;;
56860;SDS011;42744;51.094;3.490;2023-07-30T08:15:39;6.20;;;1.43;;
56860;SDS011;42744;51.094;3.490;2023-07-30T08:18:05;5.03;;;1.10;;
56860;SDS011;42744;51.094;3.490;2023-07-30T08:20:31;8.70;;;1.33;;
56860;SDS011;42744;51.094;3.490;2023-07-30T08:22:57;6.47;;;1.20;;
56860;SDS011;42744;51.094;3.490;2023-07-30T08:25:23;8.17;;;1.40;;
56860;SDS011;42744;51.094;3.490;2023-07-30T08:27:49;8.00;;;1.40;;
56860;SDS011;42744;51.094;3.490;2023-07-30T08:30:15;3.30;;;0.90;;
56860;SDS011;42744;51.094;3.490;2023-07-30T08:32:41;4.53;;;1.10;;
56860;SDS011;42744;51.094;3.490;2023-07-30T08:35:08;3.60;;;0.90;;
56860;SDS011;42744;51.094;3.490;2023-07-30T08:37:35;5.93;;;1.33;;
56860;SDS011;42744;51.094;3.490;2023-07-30T08:40:01;5.37;;;1.17;;
56860;SDS011;42744;51.094;3.490;2023-07-30T08:42:28;6.33;;;1.43;;
56860;SDS011;42744;51.094;3.490;2023-07-30T08:44:54;6.07;;;1.53;;
56860;SDS011;42744;51.094;3.490;2023-07-30T08:47:20;6.80;;;1.27;;
56860;SDS011;42744;51.094;3.490;2023-07-30T08:49:46;7.47;;;1.67;;
56860;SDS011;42744;51.094;3.490;2023-07-30T08:52:16;8.30;;;1.80;;
56860;SDS011;42744;51.094;3.490;2023-07-30T08:54:46;9.63;;;1.90;;
56860;SDS011;42744;51.094;3.490;2023-07-30T08:57:18;6.87;;;1.87;;
56860;SDS011;42744;51.094;3.490;2023-07-30T09:00:14;4.60;;;1.57;;
56860;SDS011;42744;51.094;3.490;2023-07-30T09:02:47;7.37;;;1.20;;
56860;SDS011;42744;51.094;3.490;2023-07-30T09:05:19;12.20;;;2.00;;
56860;SDS011;42744;51.094;3.490;2023-07-30T09:07:46;6.70;;;1.80;;
56860;SDS011;42744;51.094;3.490;2023-07-30T09:10:12;5.50;;;1.63;;
56860;SDS011;42744;51.094;3.490;2023-07-30T09:12:39;7.80;;;1.93;;
56860;SDS011;42744;51.094;3.490;2023-07-30T09:15:05;6.87;;;1.57;;
56860;SDS011;42744;51.094;3.490;2023-07-30T09:17:32;6.03;;;1.30;;
56860;SDS011;42744;51.094;3.490;2023-07-30T09:20:00;6.70;;;1.37;;
56860;SDS011;42744;51.094;3.490;2023-07-30T09:22:27;6.53;;;1.70;;
56860;SDS011;42744;51.094;3.490;2023-07-30T09:25:07;4.53;;;1.20;;
56860;SDS011;42744;51.094;3.490;2023-07-30T09:27:34;5.57;;;1.30;;
56860;SDS011;42744;51.094;3.490;2023-07-30T09:30:01;7.43;;;1.57;;
56860;SDS011;42744;51.094;3.490;2023-07-30T09:32:32;4.63;;;1.10;;
56860;SDS011;42744;51.094;3.490;2023-07-30T09:35:05;3.43;;;1.20;;
56860;SDS011;42744;51.094;3.490;2023-07-30T09:37:35;4.17;;;1.30;;
56860;SDS011;42744;51.094;3.490;2023-07-30T09:40:04;7.67;;;1.50;;
56860;SDS011;42744;51.094;3.490;2023-07-30T09:42:31;6.10;;;1.70;;
56860;SDS011;42744;51.094;3.490;2023-07-30T09:44:59;5.93;;;1.27;;
56860;SDS011;42744;51.094;3.490;2023-07-30T09:47:26;6.17;;;1.37;;
56860;SDS011;42744;51.094;3.490;2023-07-30T09:49:53;5.73;;;0.90;;
56860;SDS011;42744;51.094;3.490;2023-07-30T09:52:20;5.43;;;1.80;;
56860;SDS011;42744;51.094;3.490;2023-07-30T09:54:48;5.80;;;0.87;;
56860;SDS011;42744;51.094;3.490;2023-07-30T09:57:15;5.17;;;0.90;;
56860;SDS011;42744;51.094;3.490;2023-07-30T09:59:41;4.67;;;1.10;;
56860;SDS011;42744;51.094;3.490;2023-07-30T10:02:08;4.12;;;1.00;;
56860;SDS011;42744;51.094;3.490;2023-07-30T10:04:36;6.22;;;1.20;;
56860;SDS011;42744;51.094;3.490;2023-07-30T10:07:08;3.83;;;0.90;;
56860;SDS011;42744;51.094;3.490;2023-07-30T10:09:39;5.67;;;1.13;;
56860;SDS011;42744;51.094;3.490;2023-07-30T10:12:15;5.97;;;1.15;;
56860;SDS011;42744;51.094;3.490;2023-07-30T10:14:43;4.22;;;0.93;;
56860;SDS011;42744;51.094;3.490;2023-07-30T10:17:10;3.85;;;1.00;;
56860;SDS011;42744;51.094;3.490;2023-07-30T10:19:36;3.20;;;0.80;;
56860;SDS011;42744;51.094;3.490;2023-07-30T10:24:38;4.25;;;1.00;;
56860;SDS011;42744;51.094;3.490;2023-07-30T10:27:05;5.57;;;1.33;;
56860;SDS011;42744;51.094;3.490;2023-07-30T10:29:34;2.67;;;0.85;;
56860;SDS011;42744;51.094;3.490;2023-07-30T10:32:05;4.18;;;0.80;;
56860;SDS011;42744;51.094;3.490;2023-07-30T10:34:47;5.00;;;0.90;;
56860;SDS011;42744;51.094;3.490;2023-07-30T10:37:31;3.80;;;0.90;;
56860;SDS011;42744;51.094;3.490;2023-07-30T10:39:57;5.82;;;1.00;;
56860;SDS011;42744;51.094;3.490;2023-07-30T10:42:23;6.12;;;1.33;;
56860;SDS011;42744;51.094;3.490;2023-07-30T10:44:49;8.95;;;1.40;;
56860;SDS011;42744;51.094;3.490;2023-07-30T10:47:15;8.15;;;1.55;;
56860;SDS011;42744;51.094;3.490;2023-07-30T10:49:41;8.13;;;1.55;;
56860;SDS011;42744;51.094;3.490;2023-07-30T10:52:09;12.37;;;1.50;;
56860;SDS011;42744;51.094;3.490;2023-07-30T10:54:35;8.20;;;1.40;;
56860;SDS011;42744;51.094;3.490;2023-07-30T10:57:02;7.68;;;1.55;;
56860;SDS011;42744;51.094;3.490;2023-07-30T10:59:35;5.65;;;1.05;;
56860;SDS011;42744;51.094;3.490;2023-07-30T11:02:02;7.00;;;1.45;;
56860;SDS011;42744;51.094;3.490;2023-07-30T11:04:29;4.32;;;1.08;;
56860;SDS011;42744;51.094;3.490;2023-07-30T11:06:59;4.93;;;1.42;;
56860;SDS011;42744;51.094;3.490;2023-07-30T11:09:26;8.02;;;1.33;;
56860;SDS011;42744;51.094;3.490;2023-07-30T11:11:54;4.15;;;1.45;;
56860;SDS011;42744;51.094;3.490;2023-07-30T11:14:22;7.22;;;1.27;;
56860;SDS011;42744;51.094;3.490;2023-07-30T11:16:57;6.32;;;1.73;;
56860;SDS011;42744;51.094;3.490;2023-07-30T11:19:25;9.40;;;1.37;;
56860;SDS011;42744;51.094;3.490;2023-07-30T11:21:52;7.03;;;1.02;;
56860;SDS011;42744;51.094;3.490;2023-07-30T11:24:33;3.20;;;1.05;;
56860;SDS011;42744;51.094;3.490;2023-07-30T11:27:00;3.17;;;1.12;;
56860;SDS011;42744;51.094;3.490;2023-07-30T11:29:26;5.80;;;1.58;;
56860;SDS011;42744;51.094;3.490;2023-07-30T11:31:55;4.05;;;1.10;;
56860;SDS011;42744;51.094;3.490;2023-07-30T11:34:23;4.20;;;1.05;;
56860;SDS011;42744;51.094;3.490;2023-07-30T11:36:50;5.95;;;1.33;;
56860;SDS011;42744;51.094;3.490;2023-07-30T11:39:16;4.95;;;1.10;;
56860;SDS011;42744;51.094;3.490;2023-07-30T11:41:42;10.05;;;1.10;;
56860;SDS011;42744;51.094;3.490;2023-07-30T11:44:08;4.20;;;1.27;;
56860;SDS011;42744;51.094;3.490;2023-07-30T11:46:54;7.65;;;1.40;;
56860;SDS011;42744;51.094;3.490;2023-07-30T11:49:20;7.45;;;1.33;;
56860;SDS011;42744;51.094;3.490;2023-07-30T11:51:47;4.15;;;1.00;;
56860;SDS011;42744;51.094;3.490;2023-07-30T11:54:20;6.65;;;1.12;;
56860;SDS011;42744;51.094;3.490;2023-07-30T11:56:48;40.58;;;2.42;;
56860;SDS011;42744;51.094;3.490;2023-07-30T11:59:20;6.20;;;0.98;;
56860;SDS011;42744;51.094;3.490;2023-07-30T12:01:47;3.20;;;0.90;;
56860;SDS011;42744;51.094;3.490;2023-07-30T12:04:13;3.58;;;0.98;;
56860;SDS011;42744;51.094;3.490;2023-07-30T12:14:15;4.40;;;1.10;;
56860;SDS011;42744;51.094;3.490;2023-07-30T12:16:42;4.68;;;1.27;;
56860;SDS011;42744;51.094;3.490;2023-07-30T12:19:08;5.68;;;1.35;;
56860;SDS011;42744;51.094;3.490;2023-07-30T12:21:34;3.55;;;1.30;;
56860;SDS011;42744;51.094;3.490;2023-07-30T12:24:00;6.18;;;1.60;;
56860;SDS011;42744;51.094;3.490;2023-07-30T12:26:26;5.80;;;1.48;;
56860;SDS011;42744;51.094;3.490;2023-07-30T12:28:51;7.72;;;1.75;;
56860;SDS011;42744;51.094;3.490;2023-07-30T12:31:17;5.93;;;1.40;;
56860;SDS011;42744;51.094;3.490;2023-07-30T12:33:43;7.95;;;1.80;;
56860;SDS011;42744;51.094;3.490;2023-07-30T12:36:09;5.50;;;1.58;;
56860;SDS011;42744;51.094;3.490;2023-07-30T12:38:35;5.57;;;1.75;;
56860;SDS011;42744;51.094;3.490;2023-07-30T12:41:01;5.22;;;1.37;;
56860;SDS011;42744;51.094;3.490;2023-07-30T12:43:27;5.70;;;1.58;;
56860;SDS011;42744;51.094;3.490;2023-07-30T12:45:53;9.20;;;1.50;;
56860;SDS011;42744;51.094;3.490;2023-07-30T12:48:19;6.97;;;1.70;;
56860;SDS011;42744;51.094;3.490;2023-07-30T12:50:45;7.03;;;1.90;;
56860;SDS011;42744;51.094;3.490;2023-07-30T12:53:11;4.85;;;1.50;;
56860;SDS011;42744;51.094;3.490;2023-07-30T12:55:37;7.18;;;1.65;;
56860;SDS011;42744;51.094;3.490;2023-07-30T12:58:04;6.18;;;2.15;;
56860;SDS011;42744;51.094;3.490;2023-07-30T13:00:30;4.85;;;1.70;;
56860;SDS011;42744;51.094;3.490;2023-07-30T13:02:58;7.82;;;1.90;;
56860;SDS011;42744;51.094;3.490;2023-07-30T13:05:24;4.65;;;1.80;;
56860;SDS011;42744;51.094;3.490;2023-07-30T13:07:51;6.70;;;2.03;;
56860;SDS011;42744;51.094;3.490;2023-07-30T13:10:17;5.45;;;2.00;;
56860;SDS011;42744;51.094;3.490;2023-07-30T13:12:42;7.03;;;1.98;;
56860;SDS011;42744;51.094;3.490;2023-07-30T13:15:09;7.20;;;2.15;;
56860;SDS011;42744;51.094;3.490;2023-07-30T13:17:37;8.95;;;2.00;;
56860;SDS011;42744;51.094;3.490;2023-07-30T13:20:04;7.22;;;1.90;;
56860;SDS011;42744;51.094;3.490;2023-07-30T13:22:31;9.63;;;2.15;;
56860;SDS011;42744;51.094;3.490;2023-07-30T13:24:57;10.80;;;2.30;;
56860;SDS011;42744;51.094;3.490;2023-07-30T13:27:23;6.75;;;1.60;;
56860;SDS011;42744;51.094;3.490;2023-07-30T13:29:49;7.00;;;1.90;;
56860;SDS011;42744;51.094;3.490;2023-07-30T13:32:15;8.55;;;2.12;;
56860;SDS011;42744;51.094;3.490;2023-07-30T13:34:40;6.55;;;2.37;;
56860;SDS011;42744;51.094;3.490;2023-07-30T13:37:07;6.22;;;1.95;;
56860;SDS011;42744;51.094;3.490;2023-07-30T13:39:39;9.27;;;3.08;;
56860;SDS011;42744;51.094;3.490;2023-07-30T13:42:05;7.68;;;1.98;;
56860;SDS011;42744;51.094;3.490;2023-07-30T13:44:32;9.05;;;2.55;;
56860;SDS011;42744;51.094;3.490;2023-07-30T13:46:57;7.95;;;2.67;;
56860;SDS011;42744;51.094;3.490;2023-07-30T13:49:23;6.57;;;2.92;;
56860;SDS011;42744;51.094;3.490;2023-07-30T13:51:50;8.80;;;2.40;;
56860;SDS011;42744;51.094;3.490;2023-07-30T13:54:16;8.85;;;2.33;;
56860;SDS011;42744;51.094;3.490;2023-07-30T13:56:41;10.48;;;2.60;;
56860;SDS011;42744;51.094;3.490;2023-07-30T13:59:08;10.25;;;2.40;;
56860;SDS011;42744;51.094;3.490;2023-07-30T14:01:33;10.38;;;3.28;;
56860;SDS011;42744;51.094;3.490;2023-07-30T14:04:00;9.98;;;2.97;;
56860;SDS011;42744;51.094;3.490;2023-07-30T14:06:26;6.97;;;2.60;;
56860;SDS011;42744;51.094;3.490;2023-07-30T14:08:52;8.13;;;2.78;;
56860;SDS011;42744;51.094;3.490;2023-07-30T14:11:18;9.90;;;2.92;;
56860;SDS011;42744;51.094;3.490;2023-07-30T14:13:44;6.22;;;2.87;;
56860;SDS011;42744;51.094;3.490;2023-07-30T14:16:10;10.55;;;2.87;;
56860;SDS011;42744;51.094;3.490;2023-07-30T14:18:36;9.45;;;2.60;;
56860;SDS011;42744;51.094;3.490;2023-07-30T14:21:04;11.05;;;3.20;;
56860;SDS011;42744;51.094;3.490;2023-07-30T14:23:30;9.70;;;2.80;;
56860;SDS011;42744;51.094;3.490;2023-07-30T14:25:56;8.18;;;3.00;;
56860;SDS011;42744;51.094;3.490;2023-07-30T14:28:22;6.00;;;2.45;;
56860;SDS011;42744;51.094;3.490;2023-07-30T14:30:48;9.80;;;2.97;;
56860;SDS011;42744;51.094;3.490;2023-07-30T14:33:14;8.40;;;2.62;;
56860;SDS011;42744;51.094;3.490;2023-07-30T14:35:40;6.90;;;2.15;;
56860;SDS011;42744;51.094;3.490;2023-07-30T14:38:06;8.00;;;2.33;;
56860;SDS011;42744;51.094;3.490;2023-07-30T14:40:32;10.38;;;2.78;;
56860;SDS011;42744;51.094;3.490;2023-07-30T14:42:58;12.43;;;3.58;;
56860;SDS011;42744;51.094;3.490;2023-07-30T14:45:24;6.50;;;2.55;;
56860;SDS011;42744;51.094;3.490;2023-07-30T14:47:51;9.88;;;3.00;;
56860;SDS011;42744;51.094;3.490;2023-07-30T14:50:17;9.50;;;2.80;;